Latest Weather Observations for Griffith

IDN60801

Issued at 12:12 pm EDT Wednesday 19 December 2018 (issued every 10 minutes, with the page automatically refreshed every 10 minutes)

About weather observations | Map of weather stations | Latest weather observations for NSW | Other Formats
Station Details ID: 075041 Name: GRIFFITH AIRPORT AWS Lat: -34.25 Lon: 146.07 Height: 134.0 m
Data from the previous 72 hours. | See also: Recent months at Griffith
Date/Time
EDT
Temp
°C
App
Temp
°C
Dew
Point
°C
Rel
Hum
%
Delta-T
°C
Wind Press
QNH
hPa
Press
MSL
hPa
Rain since
9am
mm
Dir  Spd
km/h
Gust
km/h
Spd
kts
Gust
kts
19/12:00pm 33.8 33.6 14.8 32 11.8 SSE 9 17 5 9 1010.0 1009.4 0.0
19/11:30am 33.4 33.5 14.5 32 11.7 NNE 7 13 4 7 1010.1 1009.5 0.0
19/11:00am 32.2 33.1 16.1 38 10.1 N 6 13 3 7 1010.4 1009.8 0.0
19/10:30am 30.8 30.5 16.4 42 9.1 NNE 13 20 7 11 1010.6 1010.0 0.0
19/10:00am 30.1 31.4 17.5 46 8.0 ENE 7 17 4 9 1010.8 1010.2 0.0
19/09:30am 28.3 27.9 17.2 51 7.0 ENE 15 22 8 12 1010.9 1010.3 0.0
19/09:00am 27.4 26.8 17.6 55 6.2 ENE 17 22 9 12 1010.9 1010.3 0.0
19/08:30am 26.5 25.3 17.6 58 5.6 E 20 28 11 15 1010.7 1010.1 0.0
19/08:00am 24.4 22.6 16.9 63 4.7 E 22 28 12 15 1010.9 1010.3 0.0
19/07:30am 23.3 22.1 17.1 68 3.8 ESE 19 24 10 13 1010.8 1010.2 0.0
19/07:00am 22.3 21.7 16.6 70 3.5 SE 15 19 8 10 1010.7 1010.1 0.0
19/06:30am 21.1 20.5 16.7 76 2.7 E 15 19 8 10 1010.0 1009.4 0.0
19/06:00am 21.1 18.6 16.1 73 3.0 ESE 24 30 13 16 1009.9 1009.3 0.0
19/05:30am 21.4 19.0 16.4 73 3.0 ESE 24 28 13 15 1009.7 1009.1 0.0
19/05:00am 21.7 19.7 16.4 72 3.2 ESE 22 24 12 13 1009.6 1009.0 0.0
19/04:30am 22.3 20.2 16.3 69 3.7 ESE 22 28 12 15 1009.6 1009.0 0.0
19/04:00am 22.5 19.9 15.8 66 4.1 ESE 24 28 13 15 1009.3 1008.7 0.0
19/03:30am 22.2 18.8 12.5 54 5.5 ESE 22 28 12 15 1009.7 1009.1 0.0
19/03:00am 23.7 20.6 11.7 47 6.8 SE 19 24 10 13 1009.8 1009.2 0.0
19/02:30am 23.8 20.6 11.2 45 7.1 SE 19 22 10 12 1010.0 1009.4 0.0
19/02:00am 25.1 21.5 9.8 38 8.5 SSE 19 24 10 13 1009.9 1009.3 0.0
19/01:30am 25.4 21.8 9.7 37 8.7 SSE 19 22 10 12 1010.3 1009.7 0.0
19/01:00am 25.5 22.8 10.5 39 8.4 SE 15 19 8 10 1010.6 1010.0 0.0
19/12:30am 26.6 23.0 9.9 35 9.3 SSE 19 28 10 15 1010.7 1010.1 0.0
19/12:00am 26.8 23.9 10.9 37 9.0 SSE 17 22 9 12 1010.9 1010.3 0.0
 
Date/Time
EDT
Temp
°C
App
Temp
°C
Dew
Point
°C
Rel
Hum
%
Delta-T
°C
Wind Press
QNH
hPa
Press
MSL
hPa
Rain since
9am
mm
Dir  Spd
km/h
Gust
km/h
Spd
kts
Gust
kts
18/11:30pm 27.4 24.2 11.4 37 9.2 SSE 19 26 10 14 1010.9 1010.3 0.0
18/11:00pm 27.9 24.8 11.5 36 9.5 SSE 19 28 10 15 1011.0 1010.4 0.0
18/10:30pm 28.6 25.3 10.8 33 10.2 S 19 24 10 13 1011.0 1010.4 0.0
18/10:00pm 29.7 26.0 10.3 30 11.1 S 20 30 11 16 1010.6 1010.0 0.0
18/09:30pm 30.2 27.1 10.2 29 11.4 S 17 20 9 11 1010.3 1009.7 0.0
18/09:00pm 30.9 28.4 9.7 27 12.1 SSE 13 17 7 9 1010.1 1009.5 0.0
18/08:30pm 31.7 29.8 10.4 27 12.3 S 11 15 6 8 1009.8 1009.2 0.0
18/08:00pm 33.1 31.0 9.8 24 13.4 S 11 17 6 9 1009.6 1009.0 0.0
18/07:30pm 34.0 32.1 10.6 24 13.7 S 11 15 6 8 1009.4 1008.8 0.0
18/07:00pm 34.2 32.7 10.7 24 13.8 S 9 17 5 9 1009.1 1008.5 0.0
18/06:30pm 34.3 32.5 9.5 22 14.3 SE 9 19 5 10 1008.9 1008.3 0.0
18/06:00pm 34.7 32.0 10.5 23 14.2 SW 15 22 8 12 1008.9 1008.3 0.0
18/05:30pm 34.6 32.1 9.8 22 14.3 SSE 13 20 7 11 1009.1 1008.5 0.0
18/05:00pm 35.1 33.3 10.9 23 14.3 SSW 11 22 6 12 1009.1 1008.5 0.0
18/04:30pm 35.2 33.0 10.9 23 14.3 S 13 24 7 13 1009.3 1008.7 0.0
18/04:00pm 34.7 33.0 11.2 24 13.9 SSW 11 20 6 11 1009.6 1009.0 0.0
18/03:30pm 33.8 31.3 11.0 25 13.4 SSW 15 26 8 14 1009.8 1009.2 0.0
18/03:00pm 33.9 31.6 10.5 24 13.7 SSE 13 26 7 14 1010.0 1009.4 0.0
18/02:30pm 33.5 30.7 11.4 26 13.0 SSW 17 30 9 16 1010.5 1009.9 0.0
18/02:00pm 33.8 31.7 11.0 25 13.4 SW 13 24 7 13 1010.7 1010.1 0.0
18/01:30pm 32.7 30.6 11.3 27 12.6 WSW 13 20 7 11 1011.1 1010.5 0.0
18/01:00pm 33.0 31.0 11.5 27 12.7 SSW 13 22 7 12 1011.4 1010.8 0.0
18/12:30pm 32.6 30.7 11.7 28 12.3 SSW 13 20 7 11 1011.7 1011.1 0.0
18/12:00pm 32.0 30.1 11.7 28 12.0 SSW 13 20 7 11 1012.0 1011.4 0.0
18/11:30am 32.4 31.3 12.1 29 12.1 SE 9 17 5 9 1012.0 1011.4 0.0
18/11:00am 31.1 29.9 11.5 30 11.5 E 9 20 5 11 1012.3 1011.7 0.0
18/10:30am 30.7 29.1 11.6 31 11.2 ESE 11 19 6 10 1012.4 1011.8 0.0
18/10:00am 29.5 28.2 12.4 35 10.1 SE 11 17 6 9 1012.5 1011.9 0.0
18/09:30am 28.1 27.9 14.7 44 8.1 SE 9 15 5 8 1012.7 1012.1 0.0
18/09:00am 26.9 25.7 14.0 45 7.7 ESE 13 17 7 9 1012.6 1012.0 0.0
18/08:30am 25.1 23.6 14.3 51 6.4 SE 15 19 8 10 1012.4 1011.8 0.0
18/08:00am 23.8 22.0 14.5 56 5.5 SE 17 20 9 11 1012.0 1011.4 0.0
18/07:30am 22.7 20.5 13.2 55 5.5 SE 17 22 9 12 1011.8 1011.2 0.0
18/07:00am 21.9 19.3 13.3 58 5.0 SE 19 24 10 13 1011.6 1011.0 0.0
18/06:30am 21.0 18.8 13.4 62 4.4 SE 17 22 9 12 1011.1 1010.5 0.0
18/06:00am 21.0 19.5 13.2 61 4.5 SSE 13 17 7 9 1010.9 1010.3 0.0
18/05:30am 21.3 20.3 13.5 61 4.5 SSE 11 15 6 8 1010.6 1010.0 0.0
18/05:00am 20.2 20.6 12.4 61 4.4 SE 2 6 1 3 1010.3 1009.7 0.0
18/04:30am 22.1 20.4 12.6 55 5.4 SSE 13 15 7 8 1010.1 1009.5 0.0
18/04:00am 22.2 21.0 12.7 55 5.5 SE 11 15 6 8 1009.9 1009.3 0.0
18/03:30am 22.4 21.1 12.6 54 5.6 SSE 11 13 6 7 1009.8 1009.2 0.0
18/03:00am 22.6 21.2 12.3 52 5.9 SE 11 13 6 7 1009.7 1009.1 0.0
18/02:30am 22.2 20.5 12.5 54 5.5 SE 13 15 7 8 1009.7 1009.1 0.0
18/02:00am 23.2 21.9 12.5 51 6.1 SSE 11 13 6 7 1010.0 1009.4 0.0
18/01:30am 23.5 22.1 12.2 49 6.5 SSE 11 13 6 7 1010.3 1009.7 0.0
18/01:00am 23.9 22.5 12.2 48 6.7 SSE 11 15 6 8 1010.4 1009.8 0.0
18/12:30am 23.7 22.6 13.0 51 6.2 SE 11 13 6 7 1010.4 1009.8 0.0
18/12:00am 23.1 22.0 13.0 53 5.9 ESE 11 13 6 7 1010.4 1009.8 0.0
 
Date/Time
EDT
Temp
°C
App
Temp
°C
Dew
Point
°C
Rel
Hum
%
Delta-T
°C
Wind Press
QNH
hPa
Press
MSL
hPa
Rain since
9am
mm
Dir  Spd
km/h
Gust
km/h
Spd
kts
Gust
kts
17/11:30pm 24.4 22.7 12.4 47 6.9 SE 13 15 7 8 1010.5 1009.9 0.0
17/11:00pm 26.1 24.2 11.8 41 8.2 SE 13 15 7 8 1010.6 1010.0 0.0
17/10:30pm 26.7 24.7 11.6 39 8.7 SE 13 15 7 8 1010.5 1009.9 0.0
17/10:00pm 27.1 25.5 11.6 38 8.9 SSE 11 17 6 9 1010.3 1009.7 0.0
17/09:30pm 27.8 25.9 11.8 37 9.3 SSE 13 15 7 8 1010.1 1009.5 0.0
17/09:00pm 28.3 26.5 10.9 34 10.0 SSE 11 13 6 7 1009.8 1009.2 0.0
17/08:30pm 29.2 27.8 10.8 32 10.6 S 9 11 5 6 1009.6 1009.0 0.0
17/08:00pm 30.8 28.2 10.7 29 11.6 SSW 15 19 8 10 1009.4 1008.8 0.0
17/07:30pm 31.7 29.9 11.0 28 12.0 S 11 19 6 10 1008.9 1008.3 0.0
17/07:00pm 32.0 29.4 10.7 27 12.4 SSW 15 22 8 12 1008.6 1008.0 0.0
17/06:30pm 32.2 30.4 10.8 27 12.4 SSW 11 20 6 11 1008.2 1007.6 0.0
17/06:00pm 32.8 30.7 11.3 27 12.7 SW 13 20 7 11 1008.1 1007.5 0.0
17/05:30pm 32.1 28.8 10.8 27 12.4 SSW 19 28 10 15 1008.2 1007.6 0.0
17/05:00pm 32.0 29.5 11.2 28 12.2 S 15 30 8 16 1008.4 1007.8 0.0
17/04:30pm 31.9 28.7 11.1 28 12.1 SSW 19 28 10 15 1008.7 1008.1 0.0
17/04:00pm 31.8 30.0 11.0 28 12.1 WNW 11 17 6 9 1009.0 1008.4 0.0
17/03:30pm 30.7 27.3 11.1 30 11.4 SW 20 30 11 16 1009.2 1008.6 0.0
17/03:00pm 30.9 28.1 11.3 30 11.4 WSW 17 28 9 15 1009.3 1008.7 0.0
17/02:30pm 30.7 28.0 11.6 31 11.2 SSW 17 26 9 14 1009.5 1008.9 0.0
17/02:00pm 29.6 27.9 11.2 32 10.7 WNW 11 26 6 14 1009.7 1009.1 0.0
17/01:30pm 29.9 28.1 13.2 36 10.0 SSW 15 32 8 17 1009.8 1009.2 0.0
17/01:00pm 29.7 28.6 13.0 35 10.0 NNW 11 19 6 10 1010.0 1009.4 0.0
17/12:30pm 29.2 27.7 13.0 37 9.6 WNW 13 26 7 14 1010.1 1009.5 0.0
17/12:00pm 28.2 27.3 12.5 37 9.2 W 9 15 5 8 1010.4 1009.8 0.0
17/11:30am 27.5 26.0 13.1 41 8.5 W 13 20 7 11 1010.5 1009.9 0.0
17/11:00am 27.2 25.7 13.2 42 8.3 W 13 22 7 12 1010.5 1009.9 0.0
17/10:30am 26.5 25.9 13.6 45 7.7 SW 9 17 5 9 1010.5 1009.9 0.0
17/10:00am 26.2 26.5 13.3 45 7.6 WNW 4 11 2 6 1010.6 1010.0 0.0
17/09:30am 25.1 25.3 14.3 51 6.4 WNW 6 9 3 5 1010.7 1010.1 0.0
17/09:00am 24.5 25.4 14.0 52 6.2 WNW 2 7 1 4 1010.7 1010.1 0.0
17/08:30am 23.1 23.7 15.4 62 4.6 WNW 6 9 3 5 1010.6 1010.0 0.0
17/08:00am 21.6 23.0 14.5 64 4.2 CALM 0 0 0 0 1010.4 1009.8 0.0
17/07:30am 20.0 21.0 14.4 70 3.3 WNW 2 6 1 3 1010.4 1009.8 0.0
17/07:00am 18.5 19.1 15.2 81 1.9 N 6 9 3 5 1010.1 1009.5 0.0
17/06:30am 16.6 18.0 14.4 87 1.3 CALM 0 0 0 0 1009.8 1009.2 0.0
17/06:00am 16.2 17.3 13.5 84 1.5 CALM 0 0 0 0 1009.3 1008.7 0.0
17/05:30am 16.2 17.4 13.7 85 1.4 CALM 0 0 0 0 1009.0 1008.4 0.0
17/05:00am 16.5 17.7 13.8 84 1.5 CALM 0 0 0 0 1008.8 1008.2 0.0
17/04:30am 17.1 18.4 14.0 82 1.8 CALM 0 0 0 0 1008.5 1007.9 0.0
17/04:00am 18.2 19.1 13.9 76 2.5 NNE 2 9 1 5 1008.2 1007.6 0.0
17/03:30am 18.7 19.9 13.8 73 2.8 CALM 0 6 0 3 1008.1 1007.5 0.0
17/03:00am 19.4 20.6 13.8 70 3.2 CALM 0 6 0 3 1007.8 1007.3 0.0
17/02:30am 19.7 19.5 13.6 68 3.5 WSW 7 11 4 6 1007.8 1007.3 0.0
17/02:00am 20.5 20.4 13.2 63 4.2 W 6 7 3 4 1008.1 1007.5 0.0
17/01:30am 20.4 20.4 13.6 65 3.9 NW 6 9 3 5 1008.3 1007.7 0.0
17/01:00am 19.2 19.6 13.8 71 3.1 NNW 4 7 2 4 1008.3 1007.7 0.0
17/12:30am 19.5 19.5 13.7 69 3.3 SW 6 9 3 5 1008.3 1007.7 0.0
17/12:00am 19.5 20.6 13.4 68 3.5 CALM 0 0 0 0 1008.5 1007.9 0.0
 
Date/Time
EDT
Temp
°C
App
Temp
°C
Dew
Point
°C
Rel
Hum
%
Delta-T
°C
Wind Press
QNH
hPa
Press
MSL
hPa
Rain since
9am
mm
Dir  Spd
km/h
Gust
km/h
Spd
kts
Gust
kts
16/11:30pm 22.0 21.6 12.5 54 5.4 SW 6 9 3 5 1008.4 1007.8 0.0
16/11:00pm 21.6 21.2 13.0 58 5.0 WSW 7 11 4 6 1008.1 1007.5 0.0
16/10:30pm 21.7 21.3 12.5 56 5.2 SW 6 7 3 4 1007.8 1007.3 0.0
16/10:00pm 20.9 21.8 12.8 60 4.6 CALM 0 0 0 0 1007.6 1007.1 0.0
16/09:30pm 22.5 22.6 11.6 50 6.1 W 2 7 1 4 1007.2 1006.6 0.0
16/09:00pm 24.0 22.7 11.3 45 7.2 W 9 11 5 6 1007.0 1006.4 0.0
16/08:30pm 24.9 23.0 10.4 40 8.1 W 11 13 6 7 1006.8 1006.2 0.0
16/08:00pm 26.7 24.5 9.5 34 9.6 W 11 15 6 8 1006.6 1006.0 0.0
16/07:30pm 27.7 23.6 8.6 30 10.5 WNW 20 24 11 13 1006.4 1005.8 0.0
16/07:00pm 28.2 24.1 8.5 29 10.9 WNW 20 28 11 15 1006.1 1005.5 0.0
16/06:30pm 28.2 23.6 9.5 31 10.5 W 24 30 13 16 1006.0 1005.4 0.0
16/06:00pm 28.3 23.8 8.6 29 10.9 W 22 33 12 18 1005.8 1005.2 0.0
16/05:30pm 27.7 22.3 8.1 29 10.7 W 26 32 14 17 1005.9 1005.3 0.0
16/05:00pm 29.4 24.2 9.0 28 11.4 W 26 35 14 19 1005.8 1005.2 0.0
16/04:30pm 29.0 23.8 8.7 28 11.2 WNW 26 37 14 20 1005.9 1005.3 0.0
16/04:00pm 28.9 24.0 8.6 28 11.2 NW 24 35 13 19 1006.1 1005.5 0.0
16/03:30pm 28.8 25.2 8.5 28 11.2 NW 17 32 9 17 1006.3 1005.7 0.0
16/03:00pm 27.5 23.3 9.8 33 9.9 W 22 32 12 17 1006.6 1006.0 0.0
16/02:30pm 27.7 23.7 9.0 31 10.3 WNW 20 28 11 15 1006.9 1006.3 0.0
16/02:00pm 26.8 23.5 9.6 34 9.6 WNW 17 30 9 16 1007.0 1006.4 0.0
16/01:30pm 26.3 23.0 9.6 35 9.3 WNW 17 30 9 16 1007.2 1006.6 0.0
16/01:00pm 25.3 21.3 9.2 36 8.8 NW 20 30 11 16 1007.6 1007.1 0.0
16/12:30pm 25.4 21.7 10.1 38 8.5 NW 20 28 11 15 1007.6 1007.1 0.0

Other Formats:

Comma delimited format used in spreadsheet applications
http://www.bom.gov.au/fwo/IDN60801/IDN60801.95704.axf

JavaScript Object Notation format (JSON) in row-major order
http://www.bom.gov.au/fwo/IDN60801/IDN60801.95704.json